Date,TemperatureHighF,TemperatureAvgF,TemperatureLowF,DewpointHighF,DewpointAvgF,DewpointLowF,HumidityHigh,HumidityAvg,HumidityLow,PressureMaxIn,PressureMinIn,WindSpeedMaxMPH,WindSpeedAvgMPH,GustSpeedMaxMPH,PrecipitationSumIn
2013-1-1,73.6,66.0,54.7,68.1,62.5,52.1,94,89,79,30.09,29.92,18,3,36,0.04
2013-1-2,56.8,50.6,44.4,53.9,46.7,41.4,91,87,82,30.18,29.97,16,4,32,0.04
2013-1-3,45.1,41.5,34.0,41.7,37.9,30.5,92,87,78,30.36,30.17,16,2,32,0.26
2013-1-4,55.2,42.7,34.0,37.4,33.7,29.7,88,72,47,30.43,30.31,20,4,38,0.00
2013-1-5,54.1,47.7,40.1,40.6,36.5,31.6,77,66,53,30.36,30.23,16,6,32,0.00
2013-1-6,50.5,48.5,45.1,46.8,42.6,39.9,88,80,71,30.27,30.17,17,5,33,0.04
2013-1-7,60.6,48.6,37.2,42.8,39.7,34.5,90,73,49,30.32,30.18,20,6,39,0.00
2013-1-8,66.6,57.7,47.7,59.5,51.7,39.1,88,80,71,30.25,30.13,18,7,35,0.00
2013-1-9,68.2,64.4,58.8,65.6,61.7,55.8,95,91,85,30.23,30.15,18,7,36,0.00
2013-1-10,72.5,67.3,63.1,68.7,65.1,61.1,96,92,87,30.23,30.00,29,10,56,0.43
2013-1-11,77.9,70.0,63.3,70.7,66.3,61.0,94,88,75,30.14,30.04,16,4,31,0.00
2013-1-12,77.5,71.2,67.3,70.8,67.6,65.5,95,89,76,30.10,29.96,24,7,47,0.00
2013-1-13,76.5,72.2,70.0,71.1,69.0,67.5,93,90,83,30.00,29.93,20,8,38,0.00
2013-1-14,76.6,63.4,50.7,71.4,60.4,48.4,93,90,82,30.09,29.99,15,5,29,0.00
2013-1-15,73.2,61.4,50.5,71.2,59.5,48.4,95,93,90,30.04,29.91,14,1,28,0.59
2013-1-16,67.3,52.2,45.1,65.5,50.2,43.0,94,93,91,30.04,29.91,12,1,23,0.47
2013-1-17,49.8,43.1,37.9,43.0,37.8,33.8,92,82,68,30.34,30.02,30,6,59,0.02
2013-1-18,57.0,44.5,36.0,41.1,36.8,32.5,89,76,51,30.51,30.33,22,4,43,0.00
2013-1-19,63.7,49.3,35.8,48.7,41.3,32.6,89,75,56,30.39,30.22,18,3,35,0.00
2013-1-20,63.7,50.0,36.9,51.5,42.6,34.1,90,77,54,30.27,30.12,17,2,33,0.00
2013-1-21,65.1,51.9,37.6,49.5,42.1,34.6,90,71,50,30.21,30.11,15,1,29,0.00
2013-1-22,58.5,47.1,39.0,40.8,36.0,31.6,83,66,47,30.36,30.19,20,4,38,0.00
2013-1-23,65.8,50.8,34.9,50.7,43.2,31.6,89,76,57,30.40,30.28,14,1,27,0.00
2013-1-24,70.0,56.0,40.6,58.4,49.8,37.4,89,80,66,30.34,30.22,13,1,25,0.00
2013-1-25,70.7,58.1,45.7,60.5,52.3,42.9,91,82,64,30.29,30.15,14,2,28,0.00
2013-1-26,72.5,61.4,51.4,64.2,56.1,47.9,91,83,69,30.25,30.16,14,1,26,0.00
2013-1-27,70.9,60.4,51.4,62.4,56.0,49.2,93,86,70,30.31,30.22,15,2,30,0.00
2013-1-28,73.9,64.4,54.5,66.0,60.5,51.9,95,88,74,30.28,30.14,21,5,40,0.00
2013-1-29,76.8,71.7,67.1,70.9,68.4,64.7,93,90,81,30.14,29.86,30,8,60,0.00
2013-1-30,75.4,63.5,45.0,71.0,59.2,35.4,93,86,69,30.11,29.68,28,8,55,0.45
2013-1-31,56.3,47.4,38.5,41.5,35.0,32.1,82,63,40,30.28,30.10,16,5,31,0.00
2013-2-1,59.9,49.9,38.5,41.7,37.0,29.3,83,62,44,30.39,30.30,17,3,33,0.00
2013-2-2,64.9,49.0,32.9,48.4,37.8,24.9,86,66,49,30.37,30.18,15,2,30,0.00
2013-2-3,64.8,53.6,42.6,49.1,43.8,38.4,91,72,42,30.25,30.11,15,2,30,0.00
2013-2-4,65.1,52.8,40.1,51.5,44.4,36.5,89,74,52,30.12,29.98,13,1,25,0.02
2013-2-5,66.4,58.8,52.7,61.4,55.8,50.1,93,90,84,30.03,29.94,10,0,19,0.28
2013-2-6,69.6,59.7,52.9,61.2,56.1,51.0,95,88,74,30.15,30.00,20,4,39,0.00
2013-2-7,74.5,63.6,54.3,62.6,58.3,51.1,95,84,64,30.01,29.77,26,5,52,1.14
2013-2-8,70.7,58.8,48.7,62.1,54.0,46.2,93,84,69,30.14,29.92,23,2,45,0.00
2013-2-9,64.9,55.0,43.9,55.1,49.0,40.6,91,81,67,30.25,30.12,16,6,32,0.00
2013-2-10,72.1,64.6,52.3,68.1,61.6,49.8,93,90,82,30.12,29.95,31,9,62,0.00
2013-2-11,72.1,63.8,57.6,70.3,61.5,55.0,95,92,87,30.10,29.98,21,6,41,0.24
2013-2-12,69.6,62.6,56.1,68.1,60.7,54.1,95,93,91,30.04,29.76,19,8,37,0.06
2013-2-13,66.9,55.0,46.0,65.4,52.0,43.2,95,89,80,30.05,29.75,18,2,36,0.12
2013-2-14,56.3,46.3,39.0,46.6,41.2,35.8,91,83,68,30.17,30.03,20,3,38,0.00
2013-2-15,63.1,49.6,34.2,47.4,40.8,31.5,91,74,47,30.17,30.03,15,2,29,0.00
2013-2-16,55.9,48.2,33.4,43.6,32.3,22.9,83,56,36,30.28,30.07,24,6,47,0.00
2013-2-17,54.7,40.8,28.8,34.0,27.8,23.0,81,62,36,30.40,30.27,15,2,30,0.00
2013-2-18,63.9,51.5,32.7,54.4,42.1,28.1,87,72,52,30.29,30.02,36,8,70,0.00
2013-2-19,67.1,59.2,42.3,60.0,48.9,34.0,91,71,35,30.19,29.97,205,6,204,0.51
2013-2-20,57.6,45.6,37.8,35.0,31.6,28.1,80,60,38,30.27,30.09,19,5,37,0.00
2013-2-21,66.9,56.6,38.8,64.2,49.0,32.7,91,76,60,30.09,29.87,30,10,59,0.00
2013-2-22,68.9,67.0,65.8,66.8,64.7,63.0,94,93,90,29.96,29.84,15,2,30,0.28
2013-2-23,65.8,58.8,55.2,64.1,56.9,53.2,94,93,91,29.94,29.76,14,1,28,0.92
2013-2-24,70.7,59.3,49.3,59.7,54.4,47.3,94,85,66,29.98,29.80,14,1,28,0.26
2013-2-25,66.7,62.0,58.1,64.8,59.8,55.8,95,92,84,29.85,29.51,24,6,48,2.10
2013-2-26,65.5,56.6,51.6,63.7,48.0,43.8,94,73,59,29.91,29.53,18,1,36,0.36
2013-2-27,64.6,53.2,44.8,47.9,44.6,41.4,89,74,51,30.02,29.91,10,0,20,0.00
2013-2-28,61.5,52.0,43.3,47.1,39.6,34.9,89,64,41,30.08,29.97,14,0,26,0.00
2013-3-1,58.8,47.7,39.0,41.5,36.8,31.1,81,67,48,30.15,29.99,12,0,23,0.00
2013-3-2,51.1,42.2,34.3,34.1,29.5,25.6,77,61,49,30.20,30.09,16,2,32,0.00
2013-3-3,52.3,41.7,33.4,30.4,27.6,23.8,80,58,39,30.23,30.12,17,1,33,0.00
2013-3-4,64.0,51.1,31.3,52.9,42.8,27.5,89,74,54,30.20,29.98,21,4,41,0.00
2013-3-5,73.2,62.0,48.4,62.8,55.0,39.8,90,78,62,30.13,29.92,18,4,35,0.00
2013-3-6,59.7,49.4,39.0,40.3,33.6,29.7,82,56,36,30.27,30.13,29,4,57,0.00
2013-3-7,64.6,47.5,35.4,42.2,35.9,28.9,83,66,40,30.34,30.20,14,1,28,0.00
2013-3-8,71.4,52.3,34.2,46.8,40.5,30.5,88,67,38,30.30,30.17,18,1,36,0.00
2013-3-9,70.7,57.3,43.3,57.7,50.0,39.4,90,78,45,30.20,30.03,25,8,50,0.00
2013-3-10,73.8,65.4,58.8,63.6,60.0,55.9,90,83,70,30.06,29.92,42,14,82,0.00
2013-3-11,72.3,58.2,46.0,67.0,54.5,42.6,92,88,79,29.96,29.83,21,5,40,0.51
2013-3-12,64.2,51.0,40.3,43.4,40.5,36.1,89,69,44,30.18,29.95,22,4,44,0.02
2013-3-13,66.0,52.1,36.5,47.4,36.4,30.6,89,60,29,30.34,30.17,15,3,30,0.00
2013-3-14,64.6,50.0,37.8,36.3,31.8,26.5,74,51,32,30.43,30.27,21,4,41,0.00
2013-3-15,70.2,54.1,37.0,51.1,43.1,32.8,86,68,45,30.30,30.14,14,2,28,0.00
2013-3-16,75.4,61.4,45.1,59.7,52.3,41.4,89,74,55,30.14,29.98,15,2,29,0.00
2013-3-17,73.8,61.0,49.6,63.7,56.4,46.5,92,85,70,30.01,29.89,16,2,31,0.00
2013-3-18,79.9,69.9,59.7,71.5,65.6,57.1,94,87,74,29.91,29.78,15,1,29,0.00
2013-3-19,77.2,65.7,58.1,66.7,55.5,47.2,92,71,47,30.02,29.85,25,5,49,0.00
2013-3-20,66.0,57.0,43.0,46.8,38.9,33.9,72,51,36,30.09,29.94,21,7,42,0.00
2013-3-21,67.5,53.1,39.4,42.3,36.2,31.9,79,55,32,30.07,29.89,17,3,33,0.00
2013-3-22,66.0,54.6,48.6,53.1,44.9,41.7,79,70,59,29.93,29.88,26,7,51,0.00
2013-3-23,76.8,66.7,60.4,70.0,62.1,51.6,94,86,69,29.87,29.59,17,5,34,0.37
2013-3-24,80.4,69.1,50.4,68.4,59.4,36.8,94,73,47,29.92,29.55,31,5,62,0.02
2013-3-25,60.6,49.9,40.1,36.2,31.5,27.1,67,51,31,30.21,29.91,29,6,56,0.00
2013-3-26,57.6,45.9,36.0,32.9,29.3,26.5,72,54,37,30.36,30.21,18,3,36,0.00
2013-3-27,63.1,46.2,31.3,37.5,32.0,25.7,81,60,34,30.44,30.27,18,2,35,0.00
2013-3-28,69.3,51.0,33.3,45.8,37.9,29.2,86,64,36,30.36,30.23,15,2,95,0.00
2013-3-29,72.0,55.7,37.9,52.6,44.4,33.7,86,68,38,30.33,30.20,15,3,110,0.00
2013-3-30,76.1,61.4,46.0,59.8,52.7,42.6,89,75,52,30.21,30.04,15,3,112,0.00
2013-3-31,79.3,66.0,53.4,66.7,59.4,50.0,91,80,61,30.06,29.89,15,2,179,0.08
2013-4-1,74.8,63.4,53.4,62.4,57.2,49.0,91,81,61,30.06,29.89,15,2,29,0.00
2013-4-2,78.3,63.7,46.4,56.1,50.5,42.9,89,66,38,30.12,29.99,23,4,89,0.00
2013-4-3,61.7,58.3,53.4,58.2,55.1,51.0,94,89,79,30.06,29.78,34,8,68,1.09
2013-4-4,72.3,62.1,55.6,63.4,57.6,52.8,93,86,72,29.94,29.83,11,0,24,0.00
2013-4-5,66.4,56.5,49.1,53.1,49.5,44.3,87,78,57,30.10,29.92,22,2,136,0.00
2013-4-6,72.1,58.0,42.1,53.7,47.5,38.8,89,70,41,30.16,30.08,15,3,121,0.00
2013-4-7,77.7,62.5,46.2,61.9,54.6,42.9,91,77,54,30.13,30.02,19,2,182,0.00
2013-4-8,78.3,70.1,60.4,68.0,64.3,57.5,94,83,66,30.06,29.97,26,6,104,0.00
2013-4-9,79.3,73.0,67.3,70.9,67.6,63.9,93,83,71,30.08,29.96,25,10,159,0.00
2013-4-10,79.7,71.8,63.7,70.3,66.6,61.0,93,84,70,30.03,29.88,26,9,144,0.00
2013-4-11,79.5,72.4,61.3,74.1,69.1,58.5,92,90,83,29.88,29.58,21,7,111,0.71
2013-4-12,73.0,62.1,53.2,58.5,52.3,49.2,91,72,48,29.96,29.76,15,1,29,0.02
2013-4-13,79.0,63.4,48.0,59.1,51.5,44.6,89,68,40,30.04,29.88,21,3,137,0.00
2013-4-14,66.0,61.4,56.8,63.9,58.6,54.0,93,91,82,29.95,29.66,23,5,148,0.85
2013-4-15,77.9,70.2,64.0,72.0,67.0,62.0,95,90,80,30.03,29.82,15,3,112,0.00
2013-4-16,82.6,73.8,66.2,71.8,67.9,64.1,94,82,69,30.10,30.00,17,4,33,0.00
2013-4-17,80.6,72.5,66.4,73.3,67.0,62.5,93,84,66,30.11,29.99,18,5,175,0.00
2013-4-18,80.4,72.5,62.8,72.4,68.2,59.8,93,86,75,30.00,29.85,26,7,116,0.00
2013-4-19,74.8,59.1,47.5,72.0,55.8,44.7,92,89,83,30.16,29.80,29,4,96,0.18
2013-4-20,66.6,54.1,43.0,46.3,43.5,40.0,91,70,45,30.25,30.10,29,5,102,0.00
2013-4-21,73.8,58.7,45.1,55.1,47.8,40.0,85,69,44,30.20,30.08,16,1,31,0.00
2013-4-22,74.1,64.5,53.2,63.1,56.8,47.8,87,76,66,30.13,30.02,16,2,100,0.00
2013-4-23,75.6,65.7,57.0,65.8,59.9,53.7,91,82,68,30.11,30.02,22,5,155,0.00
2013-4-24,75.6,65.6,56.8,68.4,62.0,54.1,92,88,75,30.12,29.97,20,2,150,0.20
2013-4-25,76.6,64.6,55.2,65.0,57.4,49.6,93,79,59,30.26,30.11,16,4,107,0.00
2013-4-26,78.6,66.6,54.3,59.4,51.5,43.2,82,60,43,30.28,30.20,15,5,163,0.00
2013-4-27,79.0,68.8,56.8,68.4,62.5,53.0,90,81,67,30.20,30.03,4,0,6,0.00
2013-4-28,79.9,71.9,65.3,70.9,65.6,62.4,93,81,64,30.08,29.94,0,0,0,0.00
2013-4-29,83.5,71.5,64.6,68.4,64.5,60.8,90,80,59,29.97,29.87,0,0,0,0.00
2013-4-30,79.2,71.3,62.4,70.2,65.5,59.4,92,83,68,29.94,29.88,0,0,0,0.00
2013-5-1,73.4,69.4,64.8,69.3,66.6,61.8,94,91,86,29.93,29.84,0,0,0,0.75
2013-5-2,72.9,66.3,61.2,67.6,63.4,59.1,95,90,82,29.97,29.87,14,2,73,3.38
2013-5-3,71.4,65.3,51.4,65.5,61.5,48.7,93,88,80,29.93,29.80,22,7,181,0.34
2013-5-4,68.9,56.4,46.6,48.7,44.8,42.0,91,68,41,29.96,29.85,24,4,141,0.02
2013-5-5,70.0,59.3,48.0,60.0,48.1,43.0,92,68,47,29.99,29.84,25,4,140,0.00
2013-5-6,71.4,60.8,48.6,57.2,51.4,44.3,87,72,55,30.01,29.90,20,1,82,0.00
2013-5-7,75.6,64.8,52.5,62.1,57.1,48.8,89,77,61,30.03,29.94,15,1,170,0.00
2013-5-8,81.1,68.4,56.5,66.3,60.5,53.9,92,78,53,30.10,29.99,14,1,26,0.00
2013-5-9,79.9,69.7,58.1,68.9,62.1,55.2,92,78,58,30.14,30.04,15,1,29,0.00
2013-5-10,75.6,67.5,62.4,66.8,63.4,58.8,93,87,72,30.14,29.86,15,1,104,0.16
2013-5-11,75.2,67.3,61.7,69.7,64.1,59.0,94,89,81,30.04,29.93,10,1,150,0.10
2013-5-12,77.7,70.1,63.7,64.3,60.6,53.8,93,74,54,30.10,29.97,18,3,141,0.02
2013-5-13,78.1,65.9,54.3,53.8,48.6,43.8,81,56,36,30.26,30.09,18,4,123,0.00
2013-5-14,80.8,67.6,52.9,61.6,56.1,48.8,87,69,46,30.27,30.15,14,1,101,0.00
2013-5-15,82.2,69.5,55.2,65.6,57.6,51.7,88,68,46,30.21,30.02,13,1,80,0.00
2013-5-16,82.0,70.8,62.4,70.1,64.4,57.9,91,81,65,30.05,29.97,15,3,122,0.00
2013-5-17,82.9,73.9,63.7,73.1,68.4,60.4,92,83,70,30.05,29.97,15,3,152,0.00
2013-5-18,84.0,77.1,71.4,74.1,71.3,68.2,92,83,68,30.08,29.99,10,1,77,0.00
2013-5-19,84.2,75.8,66.9,74.2,70.3,64.1,91,83,69,30.04,29.98,12,2,22,0.00
2013-5-20,86.5,77.7,68.7,74.8,70.2,66.0,92,79,58,30.03,29.95,14,2,28,0.00
2013-5-21,85.8,76.5,66.2,74.1,69.1,63.5,92,79,60,29.99,29.88,15,2,176,0.00
2013-5-22,83.5,74.5,65.8,74.4,68.2,62.8,92,81,65,30.02,29.87,16,1,31,0.06
2013-5-23,89.2,77.5,65.5,73.8,69.2,62.5,91,77,50,30.03,29.93,12,1,24,0.00
2013-5-24,87.4,77.9,67.3,70.4,65.9,56.3,91,68,49,30.14,30.00,16,3,57,0.00
2013-5-25,86.4,72.4,60.3,63.9,57.3,49.6,82,61,40,30.22,30.12,16,3,149,0.00
2013-5-26,85.6,73.6,59.5,69.3,63.4,55.7,88,72,49,30.20,30.11,16,2,32,0.00
2013-5-27,84.4,77.0,65.8,72.0,64.6,62.5,91,68,50,30.16,30.06,243,4,243,0.00
2013-5-28,84.0,80.2,71.8,72.5,67.1,63.6,89,65,55,30.08,30.02,23,4,46,0.00
2013-5-29,84.2,76.3,67.6,74.3,70.1,64.5,92,82,66,30.05,29.99,29,8,71,0.00
2013-5-30,84.0,77.5,71.2,73.3,71.0,68.2,92,81,67,30.06,29.98,33,11,92,0.00
2013-5-31,83.1,78.1,73.2,74.9,72.2,69.6,89,82,71,30.04,29.97,27,9,143,0.00
2013-6-1,84.0,77.8,72.9,76.2,73.2,69.6,93,86,76,30.00,29.93,20,5,157,0.02
2013-6-2,88.9,78.7,70.2,76.0,71.8,67.6,93,80,61,29.97,29.84,15,2,49,0.24
2013-6-3,87.3,77.8,70.0,77.4,72.7,67.2,92,85,71,29.91,29.82,12,1,97,0.00
2013-6-4,87.4,78.8,70.7,78.6,73.6,67.9,92,84,70,29.94,29.86,15,3,140,0.00
2013-6-5,86.4,78.6,69.3,77.4,73.1,65.2,93,84,68,29.95,29.82,23,5,138,0.16
2013-6-6,85.6,75.1,66.2,74.0,68.8,63.3,91,82,66,29.87,29.70,20,4,183,0.00
2013-6-7,82.0,75.7,70.3,75.8,71.1,67.1,91,86,73,29.88,29.75,15,1,82,0.12
2013-6-8,86.9,79.4,70.2,76.7,73.0,67.6,93,82,66,30.01,29.87,14,2,178,0.00
2013-6-9,75.7,73.0,70.3,72.5,70.6,68.2,94,92,87,30.04,29.92,16,4,32,1.47
2013-6-10,79.2,75.1,71.2,75.3,72.5,69.0,94,92,87,30.07,29.96,12,1,22,2.51
2013-6-11,90.0,80.6,71.8,80.4,75.3,70.0,94,85,65,30.09,29.99,10,1,67,0.00
2013-6-12,91.6,82.3,72.5,80.1,75.8,69.7,92,81,67,30.08,29.98,0,0,0,0.00
2013-6-13,91.2,83.0,74.7,81.3,75.9,71.7,91,80,67,30.02,29.85,0,0,0,0.00
2013-6-14,90.1,82.2,76.1,78.3,74.5,69.5,92,78,57,29.93,29.83,0,0,0,0.12
2013-6-15,89.4,80.8,71.8,77.5,72.3,65.6,90,76,62,30.01,29.91,0,0,0,0.00
2013-6-16,89.4,80.4,74.3,80.3,75.7,71.5,92,86,70,30.04,29.97,0,0,0,0.53
2013-6-17,88.5,82.4,75.7,79.6,76.5,73.2,92,83,69,30.01,29.93,0,0,0,0.00
2013-6-18,88.3,82.2,74.3,77.9,75.5,70.2,89,80,68,30.01,29.88,0,0,0,0.51
2013-6-19,86.9,78.9,71.1,77.4,73.4,68.4,92,84,69,30.02,29.91,22,1,75,0.87
2013-6-20,88.7,79.8,72.1,77.5,73.5,69.5,92,82,61,30.08,29.98,13,1,24,0.00
2013-6-21,87.4,77.5,71.4,77.2,72.5,68.3,92,85,67,30.11,30.03,21,3,144,0.16
2013-6-22,88.0,78.9,70.5,76.2,72.6,68.4,93,82,62,30.10,29.99,16,3,103,0.00
2013-6-23,84.9,76.8,72.7,78.7,73.4,70.1,93,89,78,30.09,30.01,13,1,141,1.34
2013-6-24,86.9,79.7,73.6,79.2,74.9,71.1,94,86,71,30.15,30.05,24,0,182,3.70
2013-6-25,86.5,79.4,72.1,78.7,74.5,69.7,92,85,74,30.12,30.01,15,1,176,0.16
2013-6-26,87.4,80.5,72.5,79.6,75.4,70.0,92,85,72,30.06,29.96,12,0,140,0.00
2013-6-27,90.5,82.5,74.1,81.1,76.9,71.6,92,84,71,30.01,29.89,16,1,32,0.00
2013-6-28,91.8,85.8,79.3,81.9,79.2,76.1,93,81,69,29.91,29.74,13,1,158,0.00
2013-6-29,88.5,83.0,76.1,80.4,76.2,70.0,89,80,72,29.78,29.66,13,1,165,0.00
2013-6-30,87.6,79.6,72.3,76.9,73.2,69.5,92,81,62,29.76,29.68,8,1,83,0.00
2013-7-1,88.3,80.3,73.4,73.9,71.2,68.9,88,75,54,29.88,29.73,14,1,28,0.00
2013-7-2,88.2,79.3,70.0,74.0,70.9,66.4,89,77,60,29.99,29.86,13,1,50,0.00
2013-7-3,84.7,77.4,73.0,76.0,72.4,69.6,92,85,73,30.01,29.92,21,6,66,0.20
2013-7-4,83.7,76.2,70.2,76.7,72.4,67.4,94,88,78,30.00,29.89,22,5,177,0.67
2013-7-5,77.5,73.6,71.2,73.9,71.0,69.0,94,92,87,30.07,29.97,15,4,170,0.55
2013-7-6,78.1,73.6,70.9,74.2,71.2,69.1,94,92,86,30.05,29.98,13,2,82,1.77
2013-7-7,80.4,75.2,72.3,76.9,73.0,69.5,94,93,87,30.10,30.00,15,1,110,1.20
2013-7-8,84.0,77.3,74.1,77.8,74.6,72.3,95,92,78,30.16,30.07,12,1,148,0.06
2013-7-9,87.1,79.2,71.2,78.8,74.5,69.1,94,86,72,30.18,30.06,9,1,140,0.00
2013-7-10,87.6,78.0,72.3,79.0,73.9,69.9,93,87,71,30.10,29.95,11,1,21,0.02
2013-7-11,79.7,74.6,72.0,77.6,72.5,70.1,94,93,92,30.01,29.86,12,0,44,4.95
2013-7-12,86.9,78.5,72.1,77.4,73.9,70.3,94,86,71,29.91,29.83,9,1,81,0.00
2013-7-13,87.1,76.3,71.2,78.2,71.8,68.2,92,86,72,29.97,29.84,24,2,48,0.00
2013-7-14,86.4,76.5,68.5,75.8,71.4,66.1,92,85,64,30.02,29.89,15,3,42,0.16
2013-7-15,82.0,77.0,72.7,76.9,73.6,70.5,94,89,81,30.11,30.00,15,3,174,0.04
2013-7-16,82.2,76.2,72.7,75.1,72.5,69.9,93,89,77,30.17,30.07,21,6,118,0.00
2013-7-17,89.2,80.4,72.5,78.3,73.9,69.9,92,81,64,30.19,30.08,20,3,108,0.00
2013-7-18,88.5,77.6,71.8,76.6,72.9,67.9,92,86,65,30.12,29.99,16,2,99,0.30
2013-7-19,82.6,76.1,71.4,77.1,72.9,69.2,93,90,80,30.07,29.94,22,3,100,0.37
2013-7-20,86.5,79.2,73.9,79.7,75.3,71.8,93,88,78,30.00,29.91,10,1,113,0.12
2013-7-21,87.1,79.0,75.4,78.5,74.6,72.4,92,87,74,30.05,29.97,8,0,39,0.04
2013-7-22,84.0,77.0,72.5,79.7,73.9,69.7,93,90,81,30.08,29.98,12,0,24,0.89
2013-7-23,88.0,80.0,72.7,81.0,76.1,70.5,95,88,78,30.03,29.89,15,1,93,0.00
2013-7-24,88.9,80.9,73.2,80.7,76.5,70.1,94,87,75,29.94,29.85,15,2,103,0.10
2013-7-25,89.8,80.6,73.6,78.7,75.0,70.8,93,84,68,29.99,29.85,14,1,136,0.14
2013-7-26,89.8,81.6,73.2,79.5,75.4,70.4,92,82,70,30.03,29.94,8,0,57,0.00
2013-7-27,82.8,76.6,71.8,77.3,73.0,69.0,93,89,79,29.99,29.89,13,1,25,0.47
2013-7-28,86.4,79.3,72.9,78.7,75.0,70.7,94,87,77,29.98,29.86,14,1,97,0.28
2013-7-29,87.6,79.8,74.5,80.7,76.1,72.0,93,89,78,30.10,29.95,15,1,128,0.08
2013-7-30,89.2,81.8,74.3,79.6,76.5,71.8,93,84,71,30.14,30.04,9,1,30,0.00
2013-7-31,88.5,80.1,75.6,80.8,75.9,72.7,93,87,74,30.08,29.96,15,1,28,0.00
2013-8-1,88.9,78.6,73.6,81.8,75.2,71.1,93,89,73,29.99,29.90,23,1,126,1.51
2013-8-2,88.5,80.2,71.4,81.2,75.3,69.3,94,85,71,30.00,29.89,14,1,184,0.00
2013-8-3,92.1,82.9,74.1,80.4,76.3,71.6,92,81,61,30.05,29.96,13,0,24,0.00
2013-8-4,93.4,82.2,75.4,80.9,76.0,72.6,91,82,63,30.05,29.95,15,1,39,0.22
2013-8-5,90.3,80.6,73.6,80.2,75.9,71.1,92,86,70,30.02,29.94,13,1,25,0.12
2013-8-6,92.5,80.3,73.9,81.8,75.8,71.1,93,87,71,30.00,29.88,237,2,226,2.02
2013-8-7,89.4,82.8,75.0,82.0,78.0,72.9,93,86,71,29.97,29.89,14,2,144,0.16
2013-8-8,88.9,81.1,75.6,80.7,76.8,73.4,94,87,73,29.97,29.90,15,2,155,0.02
2013-8-9,88.2,81.4,75.7,80.3,76.3,73.6,94,85,71,30.04,29.92,20,4,100,0.00
2013-8-10,86.2,79.4,74.8,79.2,75.5,72.4,92,88,77,30.11,29.99,15,2,137,0.28
2013-8-11,87.4,80.3,74.1,80.3,76.1,72.0,93,87,76,30.12,30.05,13,1,120,0.08
2013-8-12,89.4,81.6,75.2,80.4,76.8,72.5,93,86,72,30.10,30.01,10,0,19,0.25
2013-8-13,86.7,79.5,74.5,80.6,75.9,72.0,93,89,79,30.03,29.91,18,1,35,0.16
2013-8-14,85.6,78.4,73.6,77.5,74.1,71.1,93,87,74,29.96,29.87,14,1,26,0.00
2013-8-15,85.6,78.8,72.1,77.2,74.2,69.7,93,86,75,29.97,29.89,15,1,24,0.00
2013-8-16,82.4,76.8,72.7,77.1,73.5,70.2,93,90,82,29.98,29.90,14,3,167,0.10
2013-8-17,75.7,72.5,70.9,72.9,70.3,68.8,94,93,91,29.99,29.91,13,2,55,1.26
2013-8-18,76.3,72.5,69.6,74.1,70.6,67.7,95,94,93,30.06,29.94,17,3,137,3.04
2013-8-19,85.8,79.0,73.0,79.4,75.0,71.2,95,88,75,30.04,29.96,13,1,124,0.00
2013-8-20,83.8,76.4,72.0,78.7,73.4,69.3,93,91,80,30.09,29.97,15,2,144,0.18
2013-8-21,85.6,76.0,72.9,79.0,72.9,70.6,93,90,77,30.12,30.03,16,2,166,0.22
2013-8-22,87.1,78.1,70.7,77.6,73.4,68.3,93,86,70,30.09,29.96,17,4,34,0.02
2013-8-23,80.2,75.3,72.3,76.4,72.4,70.2,94,91,85,30.02,29.93,16,2,117,0.16
2013-8-24,77.4,73.8,71.4,74.5,71.7,69.3,94,93,90,30.12,29.97,17,1,146,2.55
2013-8-25,82.0,75.4,71.8,76.0,72.6,69.8,94,91,81,30.18,30.07,15,4,103,0.28
2013-8-26,84.7,77.3,71.4,71.8,69.6,67.7,93,78,58,30.19,30.08,20,5,120,0.00
2013-8-27,84.0,75.4,66.6,71.5,67.9,63.2,90,78,60,30.11,30.00,15,1,93,0.00
2013-8-28,87.4,76.8,67.6,75.7,69.9,64.6,90,80,62,30.06,29.98,12,1,74,0.00
2013-8-29,89.8,78.8,69.4,75.3,71.2,66.7,91,79,56,30.06,29.95,14,1,76,0.00
2013-8-30,90.1,80.1,70.5,77.6,73.0,67.4,91,80,62,30.01,29.89,13,1,24,0.00
2013-8-31,88.9,79.7,73.6,79.6,74.5,70.5,91,85,72,29.95,29.84,20,1,38,0.00
2013-9-1,90.3,80.4,74.1,80.1,75.3,71.5,92,85,69,29.93,29.85,12,0,22,0.00
2013-9-2,89.6,80.9,75.4,79.9,75.5,72.4,92,84,72,29.98,29.86,10,1,144,0.00
2013-9-3,89.4,78.1,71.4,81.3,73.6,68.7,92,87,72,29.97,29.87,20,1,138,0.51
2013-9-4,87.6,78.5,70.7,79.9,74.3,68.3,93,87,74,30.06,29.94,10,0,71,0.06
2013-9-5,88.9,80.1,72.7,79.9,75.0,70.2,92,85,67,30.10,30.00,14,1,114,0.00
2013-9-6,88.5,80.2,72.7,76.7,73.2,70.1,92,80,58,30.08,29.97,14,2,71,0.00
2013-9-7,90.3,79.3,70.2,75.5,71.9,67.1,90,79,60,30.04,29.94,13,1,25,0.00
2013-9-8,88.3,79.6,71.4,77.4,73.3,68.3,91,82,62,29.99,29.92,13,1,70,0.00
2013-9-9,89.4,79.6,70.5,76.6,72.2,67.4,91,79,60,30.03,29.94,16,2,78,0.00
2013-9-10,88.5,78.8,73.0,76.9,72.8,69.8,91,82,65,30.10,30.01,18,2,60,0.00
2013-9-11,89.1,79.3,71.2,75.6,71.4,68.2,91,78,53,30.11,30.01,16,2,94,0.00
2013-9-12,89.8,79.5,71.1,76.9,72.0,67.7,90,79,59,30.03,29.90,14,1,80,0.00
2013-9-13,90.1,79.8,70.3,76.0,72.3,67.3,91,79,58,29.91,29.79,6,0,10,0.00
2013-9-14,81.9,76.2,72.3,73.3,70.1,67.0,89,82,67,29.98,29.83,12,0,32,0.00
2013-9-15,89.8,78.7,68.2,78.4,70.8,62.5,89,77,65,30.05,29.96,8,0,125,0.00
2013-9-16,89.8,79.0,71.1,78.7,73.2,68.1,92,83,61,30.07,29.97,12,0,160,0.02
2013-9-17,87.6,77.1,72.1,78.3,72.8,69.7,93,87,70,30.07,29.95,31,1,62,0.75
2013-9-18,82.2,76.0,72.9,75.1,72.2,70.1,92,88,79,30.06,29.99,20,2,54,0.39
2013-9-19,84.9,77.5,71.2,74.7,71.5,68.5,92,82,61,30.06,29.97,17,2,34,0.00
2013-9-20,86.2,78.5,71.8,77.9,73.6,69.2,92,85,74,30.00,29.83,15,0,30,0.00
2013-9-21,79.2,76.5,74.1,77.0,73.9,72.0,93,92,89,29.83,29.71,13,0,31,0.67
2013-9-22,78.1,72.7,68.5,73.0,69.1,66.1,93,89,81,29.79,29.71,18,6,55,0.00
2013-9-23,83.5,75.6,69.4,77.6,72.0,66.4,93,89,79,29.87,29.77,13,2,137,0.22
2013-9-24,83.1,75.7,70.7,78.5,73.2,68.5,94,92,84,29.88,29.75,15,4,184,0.83
2013-9-25,82.9,75.7,71.1,76.1,72.0,68.7,94,89,76,29.81,29.73,7,0,14,0.00
2013-9-26,86.4,76.7,67.6,75.0,70.2,65.2,92,82,59,29.94,29.79,15,1,29,0.00
2013-9-27,81.7,73.4,66.0,69.1,66.6,63.0,91,80,61,30.02,29.92,16,3,137,0.00
2013-9-28,82.6,71.9,62.8,68.6,64.6,59.5,89,79,59,30.07,29.98,20,3,103,0.00
2013-9-29,80.8,71.9,63.0,69.2,65.3,58.7,89,80,64,30.04,29.94,15,2,165,0.00
2013-9-30,82.0,73.6,68.2,71.4,68.2,65.5,91,84,66,29.98,29.90,13,1,33,0.02
2013-10-1,84.7,75.9,68.9,73.4,69.9,66.5,92,82,63,30.04,29.96,20,3,113,0.00
2013-10-2,79.2,73.8,70.9,74.9,70.7,68.1,92,90,85,30.07,29.98,15,2,148,0.24
2013-10-3,84.2,76.9,71.2,77.2,72.9,68.8,92,88,75,30.04,29.96,20,6,88,0.02
2013-10-4,85.3,77.8,72.1,78.8,73.4,69.7,93,87,70,30.04,29.97,19,4,144,0.00
2013-10-5,84.6,77.9,73.6,77.4,73.5,71.1,93,87,75,30.02,29.92,16,4,178,0.16
2013-10-6,75.0,73.4,69.8,72.9,71.0,67.4,93,92,91,29.92,29.77,14,1,50,1.38
2013-10-7,74.1,66.8,61.5,67.4,58.6,54.8,92,76,56,29.98,29.84,27,4,115,0.08
2013-10-8,76.5,65.5,55.4,63.5,58.2,51.9,88,78,61,30.00,29.93,14,2,123,0.00
2013-10-9,77.7,69.6,63.3,70.7,65.2,59.6,91,86,78,30.08,29.97,20,6,152,0.00
2013-10-10,80.4,70.8,63.3,71.8,66.0,61.0,92,85,70,30.10,29.99,15,3,72,0.00
2013-10-11,83.3,71.9,63.1,71.6,66.1,60.2,92,83,63,30.05,29.95,13,1,25,0.00
2013-10-12,82.8,72.5,63.1,73.2,67.0,60.2,92,84,67,30.07,29.98,14,0,94,0.00
2013-10-13,83.5,73.5,66.0,71.6,66.2,63.0,91,79,59,30.14,30.04,16,3,32,0.00
2013-10-14,82.6,72.3,64.0,70.0,65.6,60.7,89,80,60,30.10,29.99,15,2,112,0.00
2013-10-15,80.6,71.1,63.5,69.6,65.0,60.2,90,82,66,30.05,29.94,14,2,70,0.00
2013-10-16,80.8,71.9,62.8,72.0,66.7,59.8,91,84,72,30.01,29.90,14,1,144,0.00
2013-10-17,79.3,73.9,68.4,75.5,70.3,65.0,92,89,85,29.95,29.87,15,1,29,0.08
2013-10-18,77.2,69.3,64.6,66.6,63.3,60.6,89,82,69,30.01,29.89,19,3,183,0.00
2013-10-19,66.4,63.9,61.7,63.0,60.4,58.6,91,88,83,30.01,29.88,14,2,108,0.12
2013-10-20,72.5,63.2,55.8,61.4,57.6,53.5,92,83,65,30.04,29.94,46,2,79,0.00
2013-10-21,71.4,64.2,58.8,63.7,59.1,55.0,88,84,72,30.05,29.95,0,0,0,0.00
2013-10-22,75.4,67.0,63.0,65.4,61.6,58.1,90,83,67,29.96,29.86,0,0,0,0.00
2013-10-23,70.5,62.4,51.6,58.3,51.5,45.7,87,69,46,30.11,29.94,16,0,32,0.00
2013-10-24,71.8,58.5,45.3,55.2,48.9,41.1,87,72,49,30.22,30.09,0,0,0,0.00
2013-10-25,65.1,56.4,48.4,52.4,45.7,39.4,89,69,45,30.37,30.18,0,0,0,0.00
2013-10-26,68.4,54.3,42.6,48.3,42.1,35.6,84,65,40,30.30,30.15,0,0,0,0.00
2013-10-27,73.2,59.6,45.0,59.7,51.6,41.0,87,76,55,30.17,30.07,5,0,9,0.00
2013-10-28,77.2,65.7,55.2,65.3,58.9,51.7,89,79,64,30.20,30.09,2,0,4,0.00
2013-10-29,77.5,65.9,56.5,65.3,59.1,53.0,90,79,59,30.25,30.16,0,0,0,0.00
2013-10-30,79.5,68.4,58.6,70.4,63.5,55.1,91,85,68,30.20,30.06,4,0,7,0.00
2013-10-31,79.5,73.9,67.3,72.8,69.1,64.2,91,85,77,30.06,29.85,5,0,8,0.00
2013-11-1,74.8,68.9,59.5,71.6,65.9,56.1,92,90,88,29.89,29.77,14,1,42,0.34
2013-11-2,72.5,61.4,50.5,59.1,52.5,46.0,91,74,55,30.11,29.87,14,1,35,0.00
2013-11-3,65.5,54.9,46.0,48.4,45.0,41.2,84,70,49,30.22,30.11,16,2,112,0.00
2013-11-4,70.2,60.7,47.8,57.3,51.0,43.2,84,71,61,30.28,30.16,17,1,34,0.00
2013-11-5,73.4,63.8,54.1,61.7,55.5,48.8,83,75,66,30.26,30.13,23,0,133,0.00
2013-11-6,76.3,66.6,58.1,69.1,61.3,52.1,90,83,78,30.15,30.05,1,0,2,0.00
2013-11-7,68.0,59.8,48.7,65.9,54.6,40.5,93,83,71,30.23,29.99,10,0,19,0.06
2013-11-8,64.0,51.9,43.9,41.5,38.7,34.7,83,62,40,30.29,30.15,23,1,62,0.00
2013-11-9,70.9,57.6,44.4,59.4,50.1,39.0,87,76,66,30.25,30.15,14,0,23,0.00
2013-11-10,72.3,61.1,53.2,59.6,54.2,49.2,89,79,60,30.25,30.15,9,0,34,0.00
2013-11-11,73.2,59.7,48.9,55.1,50.3,44.9,86,73,48,30.22,30.12,8,0,13,0.00
2013-11-12,70.3,55.3,41.5,54.2,45.4,25.9,89,71,54,30.41,30.14,31,1,106,0.00
2013-11-13,53.2,42.0,33.4,28.5,25.0,20.4,68,52,34,30.49,30.38,29,2,157,0.00
2013-11-14,62.6,50.0,35.1,48.5,38.5,24.4,78,65,51,30.41,30.15,14,0,28,0.00
2013-11-15,67.8,62.0,56.1,65.1,58.1,47.2,93,87,70,30.15,29.99,2,0,4,1.26
2013-11-16,70.2,66.3,62.6,67.1,63.7,60.2,93,91,89,30.09,29.97,15,0,29,0.00
2013-11-17,78.4,72.9,68.5,74.0,70.1,66.1,94,91,83,29.99,29.91,6,0,12,0.02
2013-11-18,73.9,67.4,56.5,71.8,62.8,44.4,93,85,64,30.04,29.91,21,1,54,0.65
2013-11-19,62.1,53.9,46.8,44.6,42.1,38.2,76,65,50,30.12,29.99,21,2,125,0.00
2013-11-20,68.9,56.4,43.7,57.4,48.7,37.0,87,76,62,30.15,30.03,0,0,0,0.00
2013-11-21,67.6,61.2,54.7,61.2,56.9,51.2,89,86,80,30.23,30.14,2,0,4,0.00
2013-11-22,75.0,67.7,62.8,69.0,63.8,59.8,92,88,81,30.21,30.11,7,0,63,0.00
2013-11-23,65.5,60.4,50.2,63.1,56.9,41.5,93,88,72,30.25,30.13,8,0,183,0.00
2013-11-24,52.7,46.1,40.3,41.5,31.8,28.2,73,58,42,30.34,30.24,28,3,55,0.00
2013-11-25,59.7,49.7,39.0,57.1,42.5,29.3,91,76,65,30.30,29.88,28,2,158,0.04
2013-11-26,66.4,53.8,45.1,64.3,51.3,42.4,93,91,87,29.90,29.66,26,2,52,1.36
2013-11-27,46.6,41.3,32.4,42.7,32.8,24.7,91,73,56,30.38,29.90,22,0,33,0.02
2013-11-28,49.1,37.0,27.7,31.0,26.9,21.7,84,68,46,30.48,30.35,0,0,0,0.00
2013-11-29,57.9,42.1,29.5,35.7,31.1,25.2,85,67,39,30.54,30.40,0,0,0,0.00
2013-11-30,63.5,47.8,33.3,49.2,39.6,28.9,87,74,55,30.45,30.25,0,0,0,0.00
2013-12-1,65.1,51.8,39.7,52.7,44.8,36.4,89,78,54,30.28,30.01,4,0,8,0.00
2013-12-2,67.6,57.7,47.5,56.7,51.3,44.4,89,80,63,30.01,29.79,0,0,0,0.00
2013-12-3,75.2,67.0,57.0,67.9,62.3,53.8,92,85,73,29.86,29.76,1,0,3,0.00
2013-12-4,75.6,69.0,62.1,71.9,66.4,59.4,93,91,88,29.96,29.84,2,0,4,0.28
2013-12-5,79.3,74.4,71.4,74.1,71.5,69.3,94,91,83,30.04,29.94,7,0,14,0.00
2013-12-6,77.2,71.2,58.1,73.7,68.6,54.7,93,91,86,30.12,29.96,4,0,8,0.00
2013-12-7,57.9,45.4,42.6,54.7,42.6,40.2,91,90,88,30.28,30.11,26,7,51,0.02
2013-12-8,74.5,60.4,44.2,69.8,57.9,41.8,94,91,84,30.21,30.02,16,0,31,0.00
2013-12-9,69.8,66.2,59.4,67.6,63.2,56.4,94,90,84,30.10,30.02,0,0,0,0.00
2013-12-10,61.3,47.1,38.1,59.0,43.0,34.3,92,85,76,30.34,30.00,23,1,78,0.08
2013-12-11,58.6,47.6,35.4,46.7,39.7,31.9,87,75,59,30.38,30.28,0,0,0,0.00
2013-12-12,55.2,46.9,36.9,41.2,33.0,27.3,69,59,40,30.48,30.36,12,0,24,0.00
2013-12-13,61.0,47.4,33.4,50.2,38.3,24.2,80,71,60,30.36,30.02,0,0,0,0.00
2013-12-14,71.2,62.1,51.8,67.6,58.4,44.8,92,88,76,30.03,29.81,20,0,38,0.10
2013-12-15,55.9,43.8,35.1,53.0,37.9,31.1,90,80,71,30.29,29.96,18,2,162,0.00
2013-12-16,55.9,42.3,31.8,43.7,36.0,28.7,89,79,60,30.34,30.24,0,0,0,0.00
2013-12-17,59.7,45.4,32.5,44.8,37.1,29.6,89,74,50,30.33,30.20,0,0,0,0.00
2013-12-18,63.3,47.4,34.5,44.6,37.3,31.3,89,71,42,30.37,30.24,0,0,0,0.00
2013-12-19,68.5,54.7,37.9,58.8,49.0,33.8,90,81,69,30.25,30.08,15,0,29,0.00
2013-12-20,75.0,65.8,55.8,67.7,62.3,52.9,92,88,77,30.12,29.98,22,2,72,0.00
2013-12-21,76.6,73.5,70.0,72.5,70.5,67.5,92,90,86,29.98,29.84,34,10,171,0.00
2013-12-22,73.8,63.7,53.8,71.0,61.1,51.5,92,91,88,30.10,29.84,21,4,102,1.26
2013-12-23,54.5,48.5,38.1,52.2,45.0,33.1,92,87,81,30.38,30.05,15,0,107,0.00
2013-12-24,50.2,39.8,32.2,34.6,31.4,26.8,87,73,52,30.49,30.35,8,0,31,0.00
2013-12-25,47.8,38.8,28.0,34.6,30.1,23.3,83,71,56,30.40,30.29,4,0,6,0.00
2013-12-26,52.9,44.9,37.2,39.7,36.4,31.6,81,72,59,30.35,30.25,0,0,0,0.00
2013-12-27,58.8,50.9,42.4,39.9,37.0,34.2,75,60,43,30.38,30.25,12,0,74,0.00
2013-12-28,52.5,47.5,45.5,47.1,44.3,39.7,92,89,62,30.25,29.91,14,1,28,1.26
2013-12-29,54.5,47.7,40.3,50.7,44.8,37.6,92,90,85,30.11,29.90,15,0,156,0.00
2013-12-30,56.5,47.1,37.2,52.3,44.2,34.8,92,90,85,30.28,30.11,7,0,14,0.02
2013-12-31,49.5,44.5,42.4,46.9,40.9,38.1,91,87,83,30.41,30.27,16,1,151,0.00
2014-1-1,62.1,52.0,43.0,57.0,48.9,40.1,93,89,83,30.33,30.02,0,0,0,0.18
2014-1-2,58.6,51.2,36.5,56.4,46.2,28.3,94,83,68,30.28,29.89,14,0,43,0.26